sensor_id;sensor_type;location;lat;lon;timestamp;P1;durP1;ratioP1;P2;durP2;ratioP2
1651;SDS011;823;49.028;8.454;2023-05-29T00:02:32;8.73;;;4.80;;
1651;SDS011;823;49.028;8.454;2023-05-29T00:07:33;11.87;;;4.70;;
1651;SDS011;823;49.028;8.454;2023-05-29T00:12:34;9.98;;;4.93;;
1651;SDS011;823;49.028;8.454;2023-05-29T00:17:35;11.57;;;4.70;;
1651;SDS011;823;49.028;8.454;2023-05-29T00:22:35;9.13;;;4.10;;
1651;SDS011;823;49.028;8.454;2023-05-29T00:27:38;10.73;;;4.30;;
1651;SDS011;823;49.028;8.454;2023-05-29T00:32:39;6.83;;;4.73;;
1651;SDS011;823;49.028;8.454;2023-05-29T00:37:39;8.85;;;3.60;;
1651;SDS011;823;49.028;8.454;2023-05-29T00:42:40;10.87;;;3.67;;
1651;SDS011;823;49.028;8.454;2023-05-29T00:47:41;6.57;;;3.43;;
1651;SDS011;823;49.028;8.454;2023-05-29T00:52:42;7.20;;;3.20;;
1651;SDS011;823;49.028;8.454;2023-05-29T00:57:44;6.33;;;2.70;;
1651;SDS011;823;49.028;8.454;2023-05-29T01:02:46;7.53;;;3.80;;
1651;SDS011;823;49.028;8.454;2023-05-29T01:07:47;8.93;;;3.33;;
1651;SDS011;823;49.028;8.454;2023-05-29T01:23:28;6.63;;;3.00;;
1651;SDS011;823;49.028;8.454;2023-05-29T01:28:48;8.67;;;3.90;;
1651;SDS011;823;49.028;8.454;2023-05-29T01:33:56;9.20;;;3.70;;
1651;SDS011;823;49.028;8.454;2023-05-29T01:38:58;6.03;;;3.10;;
1651;SDS011;823;49.028;8.454;2023-05-29T01:44:00;8.40;;;2.83;;
1651;SDS011;823;49.028;8.454;2023-05-29T01:49:03;9.10;;;3.90;;
1651;SDS011;823;49.028;8.454;2023-05-29T01:54:04;6.40;;;3.10;;
1651;SDS011;823;49.028;8.454;2023-05-29T01:59:05;5.33;;;2.80;;
1651;SDS011;823;49.028;8.454;2023-05-29T02:04:06;6.03;;;3.00;;
1651;SDS011;823;49.028;8.454;2023-05-29T02:09:06;8.47;;;3.30;;
1651;SDS011;823;49.028;8.454;2023-05-29T02:14:06;9.38;;;3.10;;
1651;SDS011;823;49.028;8.454;2023-05-29T02:19:07;7.63;;;2.83;;
1651;SDS011;823;49.028;8.454;2023-05-29T02:24:07;9.73;;;3.50;;
1651;SDS011;823;49.028;8.454;2023-05-29T02:29:08;7.90;;;3.43;;
1651;SDS011;823;49.028;8.454;2023-05-29T02:34:08;8.53;;;3.60;;
1651;SDS011;823;49.028;8.454;2023-05-29T02:39:08;11.48;;;3.85;;
1651;SDS011;823;49.028;8.454;2023-05-29T02:44:09;7.73;;;4.00;;
1651;SDS011;823;49.028;8.454;2023-05-29T02:49:09;7.20;;;3.33;;
1651;SDS011;823;49.028;8.454;2023-05-29T02:54:10;9.10;;;3.55;;
1651;SDS011;823;49.028;8.454;2023-05-29T02:59:12;8.67;;;3.00;;
1651;SDS011;823;49.028;8.454;2023-05-29T03:04:12;9.10;;;3.88;;
1651;SDS011;823;49.028;8.454;2023-05-29T03:09:12;8.17;;;3.70;;
1651;SDS011;823;49.028;8.454;2023-05-29T03:14:13;8.10;;;3.73;;
1651;SDS011;823;49.028;8.454;2023-05-29T03:19:14;4.88;;;2.95;;
1651;SDS011;823;49.028;8.454;2023-05-29T03:24:14;6.60;;;3.00;;
1651;SDS011;823;49.028;8.454;2023-05-29T03:29:14;6.80;;;3.27;;
1651;SDS011;823;49.028;8.454;2023-05-29T03:34:16;6.70;;;3.50;;
1651;SDS011;823;49.028;8.454;2023-05-29T03:39:16;9.60;;;3.27;;
1651;SDS011;823;49.028;8.454;2023-05-29T03:44:17;11.65;;;4.07;;
1651;SDS011;823;49.028;8.454;2023-05-29T03:49:17;16.20;;;4.80;;
1651;SDS011;823;49.028;8.454;2023-05-29T03:54:17;10.13;;;3.47;;
1651;SDS011;823;49.028;8.454;2023-05-29T03:59:17;8.30;;;3.60;;
1651;SDS011;823;49.028;8.454;2023-05-29T04:04:18;6.80;;;3.90;;
1651;SDS011;823;49.028;8.454;2023-05-29T04:09:18;7.73;;;3.60;;
1651;SDS011;823;49.028;8.454;2023-05-29T04:14:18;10.70;;;4.10;;
1651;SDS011;823;49.028;8.454;2023-05-29T04:19:19;6.63;;;3.53;;
1651;SDS011;823;49.028;8.454;2023-05-29T04:24:20;7.27;;;4.40;;
1651;SDS011;823;49.028;8.454;2023-05-29T04:29:21;4.77;;;3.27;;
1651;SDS011;823;49.028;8.454;2023-05-29T04:34:21;7.28;;;3.80;;
1651;SDS011;823;49.028;8.454;2023-05-29T04:39:21;8.83;;;3.40;;
1651;SDS011;823;49.028;8.454;2023-05-29T04:44:22;8.67;;;4.00;;
1651;SDS011;823;49.028;8.454;2023-05-29T04:49:25;7.73;;;3.37;;
1651;SDS011;823;49.028;8.454;2023-05-29T04:54:25;11.45;;;3.60;;
1651;SDS011;823;49.028;8.454;2023-05-29T04:59:26;11.40;;;3.50;;
1651;SDS011;823;49.028;8.454;2023-05-29T05:04:26;6.13;;;3.45;;
1651;SDS011;823;49.028;8.454;2023-05-29T05:09:26;8.68;;;3.53;;
1651;SDS011;823;49.028;8.454;2023-05-29T05:14:27;10.23;;;3.53;;
1651;SDS011;823;49.028;8.454;2023-05-29T05:19:28;4.50;;;2.83;;
1651;SDS011;823;49.028;8.454;2023-05-29T05:24:28;9.00;;;4.50;;
1651;SDS011;823;49.028;8.454;2023-05-29T05:29:28;15.77;;;3.73;;
1651;SDS011;823;49.028;8.454;2023-05-29T05:34:29;16.87;;;3.80;;
1651;SDS011;823;49.028;8.454;2023-05-29T05:39:29;16.80;;;3.80;;
1651;SDS011;823;49.028;8.454;2023-05-29T05:44:30;8.82;;;3.13;;
1651;SDS011;823;49.028;8.454;2023-05-29T05:49:30;9.40;;;3.80;;
1651;SDS011;823;49.028;8.454;2023-05-29T05:54:30;9.48;;;4.32;;
1651;SDS011;823;49.028;8.454;2023-05-29T05:59:31;8.43;;;3.70;;
1651;SDS011;823;49.028;8.454;2023-05-29T06:04:31;8.00;;;3.67;;
1651;SDS011;823;49.028;8.454;2023-05-29T06:09:31;8.47;;;3.60;;
1651;SDS011;823;49.028;8.454;2023-05-29T06:14:32;5.17;;;3.33;;
1651;SDS011;823;49.028;8.454;2023-05-29T06:19:32;5.05;;;3.40;;
1651;SDS011;823;49.028;8.454;2023-05-29T06:24:32;19.50;;;4.50;;
1651;SDS011;823;49.028;8.454;2023-05-29T06:29:33;9.23;;;4.03;;
1651;SDS011;823;49.028;8.454;2023-05-29T06:34:33;9.10;;;3.67;;
1651;SDS011;823;49.028;8.454;2023-05-29T06:39:34;6.90;;;3.00;;
1651;SDS011;823;49.028;8.454;2023-05-29T06:44:34;4.10;;;2.90;;
1651;SDS011;823;49.028;8.454;2023-05-29T06:49:35;10.73;;;3.40;;
1651;SDS011;823;49.028;8.454;2023-05-29T06:54:35;7.45;;;3.10;;
1651;SDS011;823;49.028;8.454;2023-05-29T06:59:35;8.30;;;2.90;;
1651;SDS011;823;49.028;8.454;2023-05-29T07:04:36;6.83;;;2.57;;
1651;SDS011;823;49.028;8.454;2023-05-29T07:09:37;7.57;;;3.17;;
1651;SDS011;823;49.028;8.454;2023-05-29T07:14:39;6.87;;;2.57;;
1651;SDS011;823;49.028;8.454;2023-05-29T07:19:39;4.90;;;3.10;;
1651;SDS011;823;49.028;8.454;2023-05-29T07:24:40;4.87;;;2.70;;
1651;SDS011;823;49.028;8.454;2023-05-29T07:29:40;4.80;;;2.60;;
1651;SDS011;823;49.028;8.454;2023-05-29T07:34:41;7.67;;;2.90;;
1651;SDS011;823;49.028;8.454;2023-05-29T07:39:41;4.72;;;3.15;;
1651;SDS011;823;49.028;8.454;2023-05-29T07:44:42;6.33;;;2.93;;
1651;SDS011;823;49.028;8.454;2023-05-29T07:49:45;3.70;;;2.60;;
1651;SDS011;823;49.028;8.454;2023-05-29T07:54:45;8.23;;;3.17;;
1651;SDS011;823;49.028;8.454;2023-05-29T07:59:46;5.23;;;3.20;;
1651;SDS011;823;49.028;8.454;2023-05-29T08:04:49;3.70;;;2.17;;
1651;SDS011;823;49.028;8.454;2023-05-29T08:09:50;6.03;;;2.57;;
1651;SDS011;823;49.028;8.454;2023-05-29T08:14:50;10.03;;;3.70;;
1651;SDS011;823;49.028;8.454;2023-05-29T08:19:50;5.80;;;2.80;;
1651;SDS011;823;49.028;8.454;2023-05-29T08:24:51;8.07;;;3.03;;
1651;SDS011;823;49.028;8.454;2023-05-29T08:29:51;7.65;;;3.35;;
1651;SDS011;823;49.028;8.454;2023-05-29T08:34:51;9.80;;;3.17;;
1651;SDS011;823;49.028;8.454;2023-05-29T08:39:52;6.27;;;2.57;;
1651;SDS011;823;49.028;8.454;2023-05-29T08:44:52;7.30;;;2.73;;
1651;SDS011;823;49.028;8.454;2023-05-29T08:49:57;7.57;;;3.17;;
1651;SDS011;823;49.028;8.454;2023-05-29T08:55:00;7.03;;;3.00;;
1651;SDS011;823;49.028;8.454;2023-05-29T09:00:01;5.13;;;2.83;;
1651;SDS011;823;49.028;8.454;2023-05-29T09:05:08;9.90;;;3.20;;
1651;SDS011;823;49.028;8.454;2023-05-29T09:10:10;5.50;;;2.83;;
1651;SDS011;823;49.028;8.454;2023-05-29T09:15:20;6.30;;;2.80;;
1651;SDS011;823;49.028;8.454;2023-05-29T09:20:21;8.40;;;3.33;;
1651;SDS011;823;49.028;8.454;2023-05-29T09:25:25;5.73;;;3.53;;
1651;SDS011;823;49.028;8.454;2023-05-29T09:35:40;7.90;;;3.17;;
1651;SDS011;823;49.028;8.454;2023-05-29T09:40:41;5.37;;;3.40;;
1651;SDS011;823;49.028;8.454;2023-05-29T09:45:48;5.47;;;2.80;;
1651;SDS011;823;49.028;8.454;2023-05-29T09:50:49;9.20;;;3.27;;
1651;SDS011;823;49.028;8.454;2023-05-29T09:55:50;7.13;;;3.07;;
1651;SDS011;823;49.028;8.454;2023-05-29T10:00:59;7.90;;;3.00;;
1651;SDS011;823;49.028;8.454;2023-05-29T10:06:00;6.43;;;3.40;;
1651;SDS011;823;49.028;8.454;2023-05-29T10:11:02;4.17;;;3.00;;
1651;SDS011;823;49.028;8.454;2023-05-29T10:16:04;5.40;;;2.90;;
1651;SDS011;823;49.028;8.454;2023-05-29T10:21:11;5.73;;;2.90;;
1651;SDS011;823;49.028;8.454;2023-05-29T10:26:19;7.43;;;2.80;;
1651;SDS011;823;49.028;8.454;2023-05-29T10:31:28;6.90;;;3.00;;
1651;SDS011;823;49.028;8.454;2023-05-29T10:36:38;5.70;;;3.27;;
1651;SDS011;823;49.028;8.454;2023-05-29T10:41:44;7.07;;;3.03;;
1651;SDS011;823;49.028;8.454;2023-05-29T10:51:48;4.60;;;2.90;;
1651;SDS011;823;49.028;8.454;2023-05-29T10:56:55;8.53;;;3.23;;
1651;SDS011;823;49.028;8.454;2023-05-29T11:01:56;4.80;;;2.53;;
1651;SDS011;823;49.028;8.454;2023-05-29T11:06:58;6.43;;;2.90;;
1651;SDS011;823;49.028;8.454;2023-05-29T11:12:15;7.70;;;3.40;;
1651;SDS011;823;49.028;8.454;2023-05-29T11:28:05;7.40;;;2.70;;
1651;SDS011;823;49.028;8.454;2023-05-29T11:33:16;8.47;;;2.80;;
1651;SDS011;823;49.028;8.454;2023-05-29T11:38:28;6.43;;;2.90;;
1651;SDS011;823;49.028;8.454;2023-05-29T11:43:29;8.53;;;2.57;;
1651;SDS011;823;49.028;8.454;2023-05-29T11:48:29;7.43;;;2.60;;
1651;SDS011;823;49.028;8.454;2023-05-29T11:53:30;7.30;;;3.53;;
1651;SDS011;823;49.028;8.454;2023-05-29T11:58:30;6.47;;;2.35;;
1651;SDS011;823;49.028;8.454;2023-05-29T12:03:30;9.10;;;3.10;;
1651;SDS011;823;49.028;8.454;2023-05-29T12:08:31;6.43;;;2.73;;
1651;SDS011;823;49.028;8.454;2023-05-29T12:13:31;8.00;;;3.30;;
1651;SDS011;823;49.028;8.454;2023-05-29T12:18:32;6.83;;;2.90;;
1651;SDS011;823;49.028;8.454;2023-05-29T12:23:33;6.10;;;3.47;;
1651;SDS011;823;49.028;8.454;2023-05-29T12:28:34;6.63;;;3.23;;
1651;SDS011;823;49.028;8.454;2023-05-29T12:33:34;4.35;;;2.63;;
1651;SDS011;823;49.028;8.454;2023-05-29T12:38:47;6.33;;;2.50;;
1651;SDS011;823;49.028;8.454;2023-05-29T12:43:48;6.00;;;3.07;;
1651;SDS011;823;49.028;8.454;2023-05-29T12:48:49;4.38;;;2.78;;
1651;SDS011;823;49.028;8.454;2023-05-29T12:53:49;6.20;;;2.70;;
1651;SDS011;823;49.028;8.454;2023-05-29T12:58:50;3.90;;;2.60;;
1651;SDS011;823;49.028;8.454;2023-05-29T13:03:51;7.30;;;3.07;;
1651;SDS011;823;49.028;8.454;2023-05-29T13:08:52;5.07;;;2.30;;
1651;SDS011;823;49.028;8.454;2023-05-29T13:13:52;6.57;;;3.13;;
1651;SDS011;823;49.028;8.454;2023-05-29T13:18:53;7.47;;;2.70;;
1651;SDS011;823;49.028;8.454;2023-05-29T13:23:53;6.20;;;2.88;;
1651;SDS011;823;49.028;8.454;2023-05-29T13:28:54;3.87;;;2.20;;
1651;SDS011;823;49.028;8.454;2023-05-29T13:33:54;6.00;;;2.93;;
1651;SDS011;823;49.028;8.454;2023-05-29T13:38:54;3.53;;;2.33;;
1651;SDS011;823;49.028;8.454;2023-05-29T13:43:55;7.07;;;2.73;;
1651;SDS011;823;49.028;8.454;2023-05-29T13:48:55;5.03;;;2.10;;
1651;SDS011;823;49.028;8.454;2023-05-29T13:53:55;4.40;;;2.20;;
1651;SDS011;823;49.028;8.454;2023-05-29T13:58:56;5.80;;;2.20;;
1651;SDS011;823;49.028;8.454;2023-05-29T14:04:07;4.53;;;2.50;;
1651;SDS011;823;49.028;8.454;2023-05-29T14:09:07;4.43;;;1.70;;
1651;SDS011;823;49.028;8.454;2023-05-29T14:14:10;5.37;;;2.10;;
1651;SDS011;823;49.028;8.454;2023-05-29T14:19:10;3.42;;;2.53;;
1651;SDS011;823;49.028;8.454;2023-05-29T14:24:11;4.53;;;2.08;;
1651;SDS011;823;49.028;8.454;2023-05-29T14:29:13;6.67;;;2.40;;
1651;SDS011;823;49.028;8.454;2023-05-29T14:34:14;4.13;;;2.57;;
1651;SDS011;823;49.028;8.454;2023-05-29T14:39:14;6.23;;;2.37;;
1651;SDS011;823;49.028;8.454;2023-05-29T14:44:14;2.25;;;1.85;;
1651;SDS011;823;49.028;8.454;2023-05-29T14:49:17;5.00;;;2.97;;
1651;SDS011;823;49.028;8.454;2023-05-29T14:54:20;8.93;;;2.40;;
1651;SDS011;823;49.028;8.454;2023-05-29T14:59:20;5.40;;;2.50;;
1651;SDS011;823;49.028;8.454;2023-05-29T15:04:20;2.73;;;2.03;;
1651;SDS011;823;49.028;8.454;2023-05-29T15:09:21;4.00;;;2.00;;
1651;SDS011;823;49.028;8.454;2023-05-29T15:14:21;3.50;;;2.30;;
1651;SDS011;823;49.028;8.454;2023-05-29T15:19:21;3.95;;;2.38;;
1651;SDS011;823;49.028;8.454;2023-05-29T15:24:22;4.38;;;2.15;;
1651;SDS011;823;49.028;8.454;2023-05-29T15:29:22;3.30;;;2.50;;
1651;SDS011;823;49.028;8.454;2023-05-29T15:34:22;5.70;;;2.50;;
1651;SDS011;823;49.028;8.454;2023-05-29T15:39:23;4.65;;;2.50;;
1651;SDS011;823;49.028;8.454;2023-05-29T15:44:25;3.10;;;2.20;;
1651;SDS011;823;49.028;8.454;2023-05-29T15:49:26;5.97;;;2.73;;
1651;SDS011;823;49.028;8.454;2023-05-29T15:54:26;4.15;;;2.15;;
1651;SDS011;823;49.028;8.454;2023-05-29T15:59:26;25.47;;;3.30;;
1651;SDS011;823;49.028;8.454;2023-05-29T16:04:27;4.13;;;2.00;;
1651;SDS011;823;49.028;8.454;2023-05-29T16:09:27;5.10;;;2.10;;
1651;SDS011;823;49.028;8.454;2023-05-29T16:14:28;2.83;;;2.00;;
1651;SDS011;823;49.028;8.454;2023-05-29T16:19:28;3.17;;;1.63;;
1651;SDS011;823;49.028;8.454;2023-05-29T16:24:29;5.50;;;2.40;;
1651;SDS011;823;49.028;8.454;2023-05-29T16:29:29;3.63;;;2.13;;
1651;SDS011;823;49.028;8.454;2023-05-29T16:34:30;7.90;;;2.00;;
1651;SDS011;823;49.028;8.454;2023-05-29T16:39:30;3.30;;;1.97;;
1651;SDS011;823;49.028;8.454;2023-05-29T16:44:32;3.87;;;2.50;;
1651;SDS011;823;49.028;8.454;2023-05-29T16:49:32;3.83;;;2.20;;
1651;SDS011;823;49.028;8.454;2023-05-29T16:54:33;4.03;;;2.27;;
1651;SDS011;823;49.028;8.454;2023-05-29T16:59:38;3.40;;;1.93;;
1651;SDS011;823;49.028;8.454;2023-05-29T17:04:39;5.70;;;2.33;;
1651;SDS011;823;49.028;8.454;2023-05-29T17:09:40;4.33;;;2.40;;
1651;SDS011;823;49.028;8.454;2023-05-29T17:14:40;3.95;;;2.13;;
1651;SDS011;823;49.028;8.454;2023-05-29T17:19:40;9.10;;;2.45;;
1651;SDS011;823;49.028;8.454;2023-05-29T17:24:41;3.63;;;1.80;;
1651;SDS011;823;49.028;8.454;2023-05-29T17:29:42;4.03;;;2.13;;
1651;SDS011;823;49.028;8.454;2023-05-29T17:34:42;7.28;;;2.80;;
1651;SDS011;823;49.028;8.454;2023-05-29T17:39:42;6.00;;;3.20;;
1651;SDS011;823;49.028;8.454;2023-05-29T17:44:43;4.00;;;2.40;;
1651;SDS011;823;49.028;8.454;2023-05-29T17:49:43;3.80;;;2.63;;
1651;SDS011;823;49.028;8.454;2023-05-29T17:54:44;4.60;;;2.53;;
1651;SDS011;823;49.028;8.454;2023-05-29T17:59:44;4.37;;;2.70;;
1651;SDS011;823;49.028;8.454;2023-05-29T18:04:45;4.07;;;3.10;;
1651;SDS011;823;49.028;8.454;2023-05-29T18:09:48;7.17;;;2.70;;
1651;SDS011;823;49.028;8.454;2023-05-29T18:14:49;7.20;;;3.00;;
1651;SDS011;823;49.028;8.454;2023-05-29T18:19:50;4.73;;;2.40;;
1651;SDS011;823;49.028;8.454;2023-05-29T18:24:51;4.40;;;2.15;;
1651;SDS011;823;49.028;8.454;2023-05-29T18:29:51;4.25;;;2.67;;
1651;SDS011;823;49.028;8.454;2023-05-29T18:34:54;4.07;;;2.37;;
1651;SDS011;823;49.028;8.454;2023-05-29T18:39:54;5.13;;;2.60;;
1651;SDS011;823;49.028;8.454;2023-05-29T18:44:55;5.37;;;2.90;;
1651;SDS011;823;49.028;8.454;2023-05-29T18:49:56;6.80;;;2.67;;
1651;SDS011;823;49.028;8.454;2023-05-29T18:54:56;7.03;;;2.50;;
1651;SDS011;823;49.028;8.454;2023-05-29T18:59:57;6.10;;;2.93;;
1651;SDS011;823;49.028;8.454;2023-05-29T19:04:57;6.77;;;3.17;;
1651;SDS011;823;49.028;8.454;2023-05-29T19:09:58;5.90;;;3.30;;
1651;SDS011;823;49.028;8.454;2023-05-29T19:14:58;7.47;;;3.00;;
1651;SDS011;823;49.028;8.454;2023-05-29T19:19:58;14.13;;;3.80;;
1651;SDS011;823;49.028;8.454;2023-05-29T19:24:59;5.73;;;2.77;;
1651;SDS011;823;49.028;8.454;2023-05-29T19:30:00;6.93;;;3.20;;
1651;SDS011;823;49.028;8.454;2023-05-29T19:35:00;6.28;;;3.08;;
1651;SDS011;823;49.028;8.454;2023-05-29T19:40:03;6.03;;;2.67;;
1651;SDS011;823;49.028;8.454;2023-05-29T19:45:04;5.47;;;2.80;;
1651;SDS011;823;49.028;8.454;2023-05-29T19:50:05;6.20;;;3.23;;
1651;SDS011;823;49.028;8.454;2023-05-29T19:55:07;8.63;;;3.20;;
1651;SDS011;823;49.028;8.454;2023-05-29T20:00:09;5.93;;;2.70;;
1651;SDS011;823;49.028;8.454;2023-05-29T20:05:10;6.30;;;2.80;;
1651;SDS011;823;49.028;8.454;2023-05-29T20:10:10;6.10;;;2.73;;
1651;SDS011;823;49.028;8.454;2023-05-29T20:15:11;20.07;;;3.90;;
1651;SDS011;823;49.028;8.454;2023-05-29T20:20:12;10.33;;;3.90;;
1651;SDS011;823;49.028;8.454;2023-05-29T20:25:12;17.40;;;3.60;;
1651;SDS011;823;49.028;8.454;2023-05-29T20:30:13;5.82;;;3.50;;
1651;SDS011;823;49.028;8.454;2023-05-29T20:35:13;11.10;;;4.13;;
1651;SDS011;823;49.028;8.454;2023-05-29T20:40:16;8.00;;;3.03;;
1651;SDS011;823;49.028;8.454;2023-05-29T20:45:16;10.37;;;3.10;;
1651;SDS011;823;49.028;8.454;2023-05-29T20:50:18;5.90;;;2.67;;
1651;SDS011;823;49.028;8.454;2023-05-29T20:55:18;9.50;;;3.90;;
1651;SDS011;823;49.028;8.454;2023-05-29T21:00:18;7.47;;;4.40;;
1651;SDS011;823;49.028;8.454;2023-05-29T21:05:19;10.30;;;3.23;;
1651;SDS011;823;49.028;8.454;2023-05-29T21:10:20;4.60;;;2.63;;
1651;SDS011;823;49.028;8.454;2023-05-29T21:15:20;6.80;;;3.05;;
1651;SDS011;823;49.028;8.454;2023-05-29T21:20:20;9.70;;;3.87;;
1651;SDS011;823;49.028;8.454;2023-05-29T21:25:21;7.78;;;2.50;;
1651;SDS011;823;49.028;8.454;2023-05-29T21:30:21;6.10;;;2.88;;
1651;SDS011;823;49.028;8.454;2023-05-29T21:35:21;9.83;;;3.40;;
1651;SDS011;823;49.028;8.454;2023-05-29T21:40:22;5.20;;;3.08;;
1651;SDS011;823;49.028;8.454;2023-05-29T21:45:22;10.65;;;4.07;;
1651;SDS011;823;49.028;8.454;2023-05-29T21:50:22;7.67;;;3.43;;
1651;SDS011;823;49.028;8.454;2023-05-29T21:55:23;10.38;;;3.33;;
1651;SDS011;823;49.028;8.454;2023-05-29T22:00:23;7.10;;;3.45;;
1651;SDS011;823;49.028;8.454;2023-05-29T22:05:26;5.10;;;2.90;;
1651;SDS011;823;49.028;8.454;2023-05-29T22:10:26;4.60;;;3.15;;
1651;SDS011;823;49.028;8.454;2023-05-29T22:15:30;5.05;;;2.65;;
1651;SDS011;823;49.028;8.454;2023-05-29T22:20:30;6.10;;;3.17;;
1651;SDS011;823;49.028;8.454;2023-05-29T22:25:31;8.30;;;3.13;;
1651;SDS011;823;49.028;8.454;2023-05-29T22:30:31;7.45;;;3.95;;
1651;SDS011;823;49.028;8.454;2023-05-29T22:35:31;8.38;;;3.63;;
1651;SDS011;823;49.028;8.454;2023-05-29T22:40:32;10.05;;;3.40;;
1651;SDS011;823;49.028;8.454;2023-05-29T22:45:35;7.03;;;3.67;;
1651;SDS011;823;49.028;8.454;2023-05-29T22:50:37;8.03;;;3.90;;
1651;SDS011;823;49.028;8.454;2023-05-29T22:55:37;5.30;;;3.10;;
1651;SDS011;823;49.028;8.454;2023-05-29T23:00:38;6.70;;;3.57;;
1651;SDS011;823;49.028;8.454;2023-05-29T23:05:39;7.10;;;3.60;;
1651;SDS011;823;49.028;8.454;2023-05-29T23:10:40;8.23;;;3.67;;
1651;SDS011;823;49.028;8.454;2023-05-29T23:15:40;8.77;;;4.40;;
1651;SDS011;823;49.028;8.454;2023-05-29T23:20:43;8.00;;;3.70;;
1651;SDS011;823;49.028;8.454;2023-05-29T23:25:45;8.87;;;3.13;;
1651;SDS011;823;49.028;8.454;2023-05-29T23:30:46;6.93;;;3.27;;
1651;SDS011;823;49.028;8.454;2023-05-29T23:35:47;5.75;;;3.55;;
1651;SDS011;823;49.028;8.454;2023-05-29T23:40:47;12.90;;;3.60;;
1651;SDS011;823;49.028;8.454;2023-05-29T23:45:47;8.55;;;3.75;;
1651;SDS011;823;49.028;8.454;2023-05-29T23:50:48;11.23;;;3.85;;
1651;SDS011;823;49.028;8.454;2023-05-29T23:55:48;8.67;;;3.33;;
